Time;durP1;ratioP1;P1;durP2;ratioP2;P2;SDS_P1;SDS_P2;PMS_P1;PMS_P2;Temp;Humidity;BMP_temperature;BMP_pressure;BME280_temperature;BME280_humidity;BME280_pressure;Samples;Min_cycle;Max_cycle;Signal;HPM_P1;HPM_P2
2022/05/09 00:01:48;;;;;;;7.10;3.33;;;11.30;1.00;;;;;;5032935;28;20459;-81
2022/05/09 00:04:20;;;;;;;9.67;4.03;;;11.20;1.00;;;;;;5040288;28;20789;-82
2022/05/09 00:06:49;;;;;;;10.37;4.17;;;11.20;1.00;;;;;;5035895;28;20448;-82
2022/05/09 00:09:19;;;;;;;7.67;3.47;;;11.10;1.00;;;;;;5025218;28;20429;-82
2022/05/09 00:11:48;;;;;;;8.13;3.23;;;11.00;1.00;;;;;;5035568;28;20469;-82
2022/05/09 00:14:38;;;;;;;9.73;4.10;;;11.00;1.00;;;;;;5007156;28;20440;-81
2022/05/09 00:17:13;;;;;;;11.50;3.40;;;10.90;1.00;;;;;;5035359;28;20441;-80
2022/05/09 00:19:43;;;;;;;6.40;3.40;;;10.90;1.00;;;;;;5030844;28;20464;-83
2022/05/09 00:22:10;;;;;;;9.60;3.73;;;10.90;1.00;;;;;;5030115;28;20437;-82
2022/05/09 00:24:40;;;;;;;7.90;3.80;;;10.90;1.00;;;;;;5028605;28;20440;-83
2022/05/09 00:27:11;;;;;;;6.90;3.60;;;10.90;1.00;;;;;;5031625;28;20445;-82
2022/05/09 00:29:40;;;;;;;11.33;4.13;;;10.80;1.00;;;;;;5033335;28;20437;-82
2022/05/09 00:32:12;;;;;;;11.13;4.17;;;10.80;1.00;;;;;;5037361;28;20425;-83
2022/05/09 00:34:40;;;;;;;9.67;3.83;;;10.80;1.00;;;;;;5034748;28;20452;-80
2022/05/09 00:37:10;;;;;;;7.70;3.80;;;10.80;1.00;;;;;;5030734;28;20477;-82
2022/05/09 00:39:39;;;;;;;6.00;3.40;;;10.70;1.00;;;;;;5026345;28;20493;-81
2022/05/09 00:42:10;;;;;;;8.23;3.97;;;10.70;1.00;;;;;;5027823;28;20453;-81
2022/05/09 00:44:52;;;;;;;10.43;3.90;;;10.70;1.00;;;;;;5031787;28;20455;-83
2022/05/09 00:47:21;;;;;;;9.00;4.10;;;10.60;1.00;;;;;;5028335;28;20417;-82
2022/05/09 00:50:00;;;;;;;11.07;4.20;;;10.60;1.00;;;;;;5029470;28;20453;-82
2022/05/09 00:52:33;;;;;;;7.67;3.33;;;10.60;1.00;;;;;;5034124;28;20502;-83
2022/05/09 00:55:11;;;;;;;8.47;3.80;;;10.50;1.00;;;;;;5028629;28;20546;-83
2022/05/09 00:57:51;;;;;;;9.93;4.40;;;10.50;1.00;;;;;;5029002;28;20596;-81
2022/05/09 01:00:23;;;;;;;6.60;3.40;;;10.50;1.00;;;;;;5034174;28;20440;-81
2022/05/09 01:03:00;;;;;;;7.50;4.10;;;10.40;1.00;;;;;;5032315;28;20450;-81
2022/05/09 01:05:30;;;;;;;10.90;4.00;;;10.40;1.00;;;;;;5031405;28;20401;-81
2022/05/09 01:08:00;;;;;;;6.87;4.13;;;10.40;1.00;;;;;;5033873;28;20421;-81
2022/05/09 01:10:35;;;;;;;9.93;4.00;;;10.40;1.00;;;;;;5026684;28;20479;-80
2022/05/09 01:13:12;;;;;;;8.20;3.60;;;10.40;1.00;;;;;;5026138;28;20517;-81
2022/05/09 01:15:41;;;;;;;9.23;4.40;;;10.40;1.00;;;;;;5027255;28;21168;-81
2022/05/09 01:18:13;;;;;;;10.13;5.30;;;10.30;1.00;;;;;;5029666;28;20459;-81
2022/05/09 01:20:40;;;;;;;10.67;4.50;;;10.30;1.00;;;;;;5034049;28;20518;-81
2022/05/09 01:23:12;;;;;;;11.70;4.50;;;10.30;1.00;;;;;;5030853;28;20644;-81
2022/05/09 01:25:41;;;;;;;6.73;3.80;;;10.30;1.00;;;;;;5034472;28;20439;-81
2022/05/09 01:28:20;;;;;;;9.60;3.93;;;10.30;1.00;;;;;;5029298;28;20429;-83
2022/05/09 01:31:03;;;;;;;10.83;4.03;;;10.20;1.00;;;;;;5024855;28;20522;-84
2022/05/09 01:33:39;;;;;;;10.07;4.27;;;10.30;1.00;;;;;;5025802;28;20439;-83
2022/05/09 01:36:13;;;;;;;8.47;4.47;;;10.20;1.00;;;;;;5032005;28;20512;-84
2022/05/09 01:38:53;;;;;;;10.83;4.53;;;10.20;1.00;;;;;;5031581;28;20450;-83
2022/05/09 01:41:20;;;;;;;7.13;3.60;;;10.20;1.00;;;;;;5029318;28;20510;-82
2022/05/09 01:43:59;;;;;;;7.20;4.67;;;10.10;1.00;;;;;;5024035;28;20459;-83
2022/05/09 01:46:32;;;;;;;13.00;5.17;;;10.10;1.00;;;;;;5026613;28;20419;-86
2022/05/09 01:51:50;;;;;;;10.13;4.27;;;10.00;1.00;;;;;;5032640;28;20513;-83
2022/05/09 01:54:22;;;;;;;12.40;5.20;;;9.90;1.00;;;;;;5031188;28;20536;-83
2022/05/09 01:56:50;;;;;;;8.97;4.10;;;9.90;1.00;;;;;;5028235;28;20457;-83
2022/05/09 01:59:21;;;;;;;7.47;4.60;;;9.90;1.00;;;;;;5033049;28;20447;-82
2022/05/09 02:02:02;;;;;;;12.17;4.97;;;9.90;1.00;;;;;;5021522;28;20401;-84
2022/05/09 02:04:31;;;;;;;8.67;4.30;;;9.90;1.00;;;;;;5027840;28;20442;-83
2022/05/09 02:07:01;;;;;;;8.10;4.20;;;9.90;1.00;;;;;;5030269;28;20410;-83
2022/05/09 02:09:32;;;;;;;8.10;4.20;;;9.90;1.00;;;;;;5033786;28;20259;-82
2022/05/09 02:12:01;;;;;;;16.70;5.17;;;9.90;1.00;;;;;;5034809;28;20402;-84
2022/05/09 02:14:30;;;;;;;8.43;4.60;;;9.80;1.00;;;;;;5029410;28;20450;-84
2022/05/09 02:17:01;;;;;;;8.57;4.63;;;9.80;1.00;;;;;;5032562;28;20411;-81
2022/05/09 02:19:31;;;;;;;8.67;4.40;;;9.80;1.00;;;;;;5031540;28;20239;-83
2022/05/09 02:22:01;;;;;;;12.93;5.43;;;9.70;1.00;;;;;;5032021;28;20474;-84
2022/05/09 02:24:38;;;;;;;7.80;4.77;;;9.70;1.00;;;;;;5034764;28;20454;-84
2022/05/09 02:27:20;;;;;;;11.10;4.90;;;9.70;1.00;;;;;;5022315;28;20488;-83
2022/05/09 02:29:50;;;;;;;9.70;4.77;;;9.70;1.00;;;;;;5040530;28;20441;-85
2022/05/09 02:32:21;;;;;;;13.17;4.83;;;9.60;1.00;;;;;;5032516;28;20482;-83
2022/05/09 02:34:51;;;;;;;10.33;4.87;;;9.60;1.00;;;;;;5030483;28;20485;-83
2022/05/09 02:37:21;;;;;;;10.95;5.25;;;9.50;1.00;;;;;;5035635;28;20426;-81
2022/05/09 02:39:53;;;;;;;10.07;4.73;;;9.50;1.00;;;;;;5028608;28;21147;-83
2022/05/09 02:42:21;;;;;;;9.60;4.80;;;9.50;1.00;;;;;;5030077;28;20477;-85
2022/05/09 02:44:52;;;;;;;12.20;7.73;;;9.40;1.00;;;;;;5037856;28;20453;-84
2022/05/09 02:47:20;;;;;;;8.33;5.60;;;9.40;1.00;;;;;;5032818;28;20539;-84
2022/05/09 02:49:50;;;;;;;11.60;5.97;;;9.30;1.00;;;;;;5030917;28;20451;-83
2022/05/09 02:52:20;;;;;;;8.80;5.10;;;9.30;1.00;;;;;;5031799;28;20476;-84
2022/05/09 02:54:50;;;;;;;11.87;5.93;;;9.30;1.00;;;;;;5037859;28;20441;-85
2022/05/09 02:57:23;;;;;;;8.43;5.20;;;9.20;1.00;;;;;;5030134;28;20437;-83
2022/05/09 02:59:50;;;;;;;9.20;5.63;;;9.20;1.00;;;;;;5033077;28;20457;-84
2022/05/09 03:02:21;;;;;;;9.30;5.37;;;9.10;1.00;;;;;;5034714;28;20420;-84
2022/05/09 03:04:49;;;;;;;9.52;5.78;;;9.10;1.00;;;;;;5035180;28;20426;-86
2022/05/09 03:07:21;;;;;;;9.37;5.40;;;9.10;1.00;;;;;;5035033;28;20228;-83
2022/05/09 03:09:51;;;;;;;9.70;5.83;;;9.10;1.00;;;;;;5033925;28;20444;-82
2022/05/09 03:12:21;;;;;;;7.93;5.20;;;9.10;1.00;;;;;;5028308;28;20422;-84
2022/05/09 03:14:50;;;;;;;12.53;5.60;;;9.10;1.00;;;;;;5031910;28;21616;-82
2022/05/09 03:17:21;;;;;;;12.23;6.87;;;9.00;1.00;;;;;;5033016;28;20932;-82
2022/05/09 03:19:50;;;;;;;12.07;6.00;;;9.00;1.00;;;;;;5029608;28;20438;-84
2022/05/09 03:22:20;;;;;;;13.00;6.50;;;9.00;1.00;;;;;;5029284;28;20422;-82
2022/05/09 03:24:51;;;;;;;12.63;6.73;;;9.00;1.00;;;;;;5031779;28;20433;-85
2022/05/09 03:27:22;;;;;;;10.65;5.97;;;9.00;1.00;;;;;;5036022;28;20427;-84
2022/05/09 03:29:50;;;;;;;14.03;6.70;;;9.00;1.00;;;;;;5036323;28;20235;-82
2022/05/09 03:32:20;;;;;;;12.63;6.63;;;9.00;1.00;;;;;;5028233;28;20436;-83
2022/05/09 03:34:50;;;;;;;10.10;5.83;;;9.00;1.00;;;;;;5032156;28;20446;-81
2022/05/09 03:37:20;;;;;;;10.90;6.30;;;9.00;1.00;;;;;;5034813;28;20440;-82
2022/05/09 03:39:50;;;;;;;9.70;6.13;;;9.00;1.00;;;;;;5033803;28;20296;-82
2022/05/09 03:42:22;;;;;;;11.73;7.60;;;8.90;1.00;;;;;;5031243;28;21120;-83
2022/05/09 03:44:51;;;;;;;10.67;6.80;;;9.00;1.00;;;;;;5033458;28;20267;-83
2022/05/09 03:47:20;;;;;;;9.52;6.20;;;9.00;1.00;;;;;;5027026;28;20446;-82
2022/05/09 03:49:55;;;;;;;10.40;7.33;;;9.00;1.00;;;;;;5029865;28;20949;-81
2022/05/09 03:52:23;;;;;;;10.17;6.10;;;9.00;1.00;;;;;;5033221;28;20568;-85
2022/05/09 03:54:51;;;;;;;10.13;6.70;;;9.00;1.00;;;;;;5035804;28;20472;-84
2022/05/09 03:57:29;;;;;;;11.57;6.70;;;9.10;1.00;;;;;;5033505;28;20430;-84
2022/05/09 04:00:09;;;;;;;12.43;6.75;;;9.10;1.00;;;;;;5035016;28;20514;-83
2022/05/09 04:02:40;;;;;;;9.85;6.47;;;9.00;1.00;;;;;;5021695;28;20256;-83
2022/05/09 04:05:15;;;;;;;11.37;7.07;;;9.10;1.00;;;;;;5033629;28;20231;-82
2022/05/09 04:07:52;;;;;;;11.00;6.90;;;9.10;1.00;;;;;;5032132;28;20514;-81
2022/05/09 04:10:23;;;;;;;11.70;8.10;;;9.10;1.00;;;;;;5036923;28;20446;-82
2022/05/09 04:12:53;;;;;;;9.80;7.13;;;9.20;1.00;;;;;;5033139;28;20446;-82
2022/05/09 04:18:10;;;;;;;8.50;7.17;;;9.10;1.00;;;;;;5031570;28;20521;-84
2022/05/09 04:20:41;;;;;;;13.40;8.17;;;9.10;1.00;;;;;;5031263;28;20564;-81
2022/05/09 04:23:13;;;;;;;10.13;7.83;;;9.20;1.00;;;;;;5029807;28;20449;-76
2022/05/09 04:25:41;;;;;;;9.47;7.37;;;9.20;1.00;;;;;;5033271;28;21101;-82
2022/05/09 04:28:12;;;;;;;16.03;11.43;;;9.20;1.00;;;;;;5025356;28;20515;-81
2022/05/09 04:30:41;;;;;;;11.80;7.73;;;9.20;1.00;;;;;;5035135;28;20436;-84
2022/05/09 04:33:12;;;;;;;11.23;8.03;;;9.30;1.00;;;;;;5030073;28;20451;-80
2022/05/09 04:35:43;;;;;;;14.30;7.80;;;9.30;1.00;;;;;;5035123;28;20439;-79
2022/05/09 04:38:21;;;;;;;7.67;6.63;;;9.30;1.00;;;;;;5028642;28;20420;-79
2022/05/09 04:40:52;;;;;;;8.50;6.60;;;9.40;1.00;;;;;;5034897;28;20672;-80
2022/05/09 04:43:24;;;;;;;11.93;7.53;;;9.40;1.00;;;;;;5031305;28;20507;-80
2022/05/09 04:45:54;;;;;;;23.23;16.83;;;9.40;1.00;;;;;;5035295;28;20548;-84
2022/05/09 04:48:22;;;;;;;12.68;8.90;;;9.40;1.00;;;;;;5033475;28;20465;-77
2022/05/09 04:50:50;;;;;;;13.30;8.20;;;9.50;1.00;;;;;;5028621;28;20226;-79
2022/05/09 04:53:32;;;;;;;11.90;7.20;;;9.50;1.00;;;;;;5033989;28;20435;-81
2022/05/09 04:56:02;;;;;;;12.10;8.13;;;9.50;1.00;;;;;;5027252;28;20430;-79
2022/05/09 04:58:33;;;;;;;38.20;22.63;;;9.50;1.00;;;;;;5029536;28;20470;-78
2022/05/09 05:01:00;;;;;;;16.13;9.37;;;9.60;1.00;;;;;;5031011;28;20506;-78
2022/05/09 05:03:30;;;;;;;12.83;7.67;;;9.60;1.00;;;;;;5028346;28;20423;-78
2022/05/09 05:06:00;;;;;;;14.83;7.93;;;9.70;1.00;;;;;;5031597;28;20444;-78
2022/05/09 05:08:33;;;;;;;13.60;10.20;;;9.70;1.00;;;;;;5025255;28;20419;-79
2022/05/09 05:11:01;;;;;;;9.33;7.60;;;9.70;1.00;;;;;;5032584;28;20440;-78
2022/05/09 05:13:28;;;;;;;12.00;8.00;;;9.80;1.00;;;;;;5028903;28;20424;-79
2022/05/09 05:16:02;;;;;;;10.57;7.60;;;9.80;1.00;;;;;;5022910;28;20972;-78
2022/05/09 05:18:32;;;;;;;9.43;8.27;;;9.90;1.00;;;;;;5028441;28;20437;-80
2022/05/09 05:21:11;;;;;;;11.30;9.13;;;10.00;1.00;;;;;;5034440;28;20429;-80
2022/05/09 05:23:41;;;;;;;12.10;8.13;;;10.00;1.00;;;;;;5030659;28;20443;-80
2022/05/09 05:26:13;;;;;;;12.40;10.20;;;10.10;1.00;;;;;;5023794;28;20448;-79
2022/05/09 05:28:41;;;;;;;11.93;9.07;;;10.20;1.00;;;;;;5032283;28;20476;-80
2022/05/09 05:31:18;;;;;;;13.20;8.90;;;10.30;1.00;;;;;;5031337;28;20448;-78
2022/05/09 05:33:53;;;;;;;11.33;7.70;;;10.40;1.00;;;;;;5029486;28;20424;-77
2022/05/09 05:36:21;;;;;;;10.90;8.80;;;10.60;1.00;;;;;;5033191;28;20498;-76
2022/05/09 05:38:52;;;;;;;13.40;11.60;;;10.60;1.00;;;;;;5029722;28;20424;-81
2022/05/09 05:41:22;;;;;;;12.23;8.87;;;10.80;1.00;;;;;;5034545;28;20504;-79
2022/05/09 05:43:51;;;;;;;11.27;8.60;;;10.80;1.00;;;;;;5037485;28;20423;-78
2022/05/09 05:46:22;;;;;;;12.73;8.40;;;10.90;1.00;;;;;;5037751;28;20461;-79
2022/05/09 05:48:51;;;;;;;10.03;7.77;;;11.00;1.00;;;;;;5036692;28;20508;-80
2022/05/09 05:51:23;;;;;;;11.10;8.83;;;11.10;1.00;;;;;;5035462;28;20448;-78
2022/05/09 05:53:53;;;;;;;11.50;7.73;;;11.20;1.00;;;;;;5035746;28;20441;-78
2022/05/09 05:56:22;;;;;;;10.73;8.13;;;11.40;1.00;;;;;;5037728;28;20443;-78
2022/05/09 05:58:51;;;;;;;10.17;7.80;;;11.40;1.00;;;;;;5042591;28;20473;-83
2022/05/09 06:01:23;;;;;;;12.13;10.30;;;11.50;1.00;;;;;;5033923;28;20458;-80
2022/05/09 06:03:52;;;;;;;16.83;8.67;;;11.60;1.00;;;;;;5037156;28;20444;-78
2022/05/09 06:06:23;;;;;;;9.83;8.30;;;11.80;1.00;;;;;;5037828;28;20615;-82
2022/05/09 06:08:52;;;;;;;13.23;9.40;;;12.00;1.00;;;;;;5041018;28;20429;-80
2022/05/09 06:11:22;;;;;;;12.60;10.47;;;12.10;1.00;;;;;;5038791;28;20432;-80
2022/05/09 06:13:51;;;;;;;12.10;8.90;;;12.30;1.00;;;;;;5037128;28;20477;-79
2022/05/09 06:16:25;;;;;;;9.03;7.57;;;12.50;1.00;;;;;;5033025;28;20445;-79
2022/05/09 06:18:53;;;;;;;10.53;8.20;;;12.60;1.00;;;;;;5039516;28;20481;-82
2022/05/09 06:21:23;;;;;;;10.13;7.67;;;12.50;1.00;;;;;;5031696;28;20463;-79
2022/05/09 06:23:51;;;;;;;12.20;8.53;;;12.60;1.00;;;;;;5033643;28;20457;-78
2022/05/09 06:26:22;;;;;;;12.93;8.27;;;12.70;1.00;;;;;;5027244;28;20434;-75
2022/05/09 06:29:06;;;;;;;12.40;8.23;;;12.70;1.00;;;;;;5031176;28;20441;-78
2022/05/09 06:31:54;;;;;;;11.50;8.50;;;12.60;1.00;;;;;;5030221;28;20440;-82
2022/05/09 06:34:21;;;;;;;20.23;18.30;;;12.70;1.00;;;;;;5030321;28;20441;-79
2022/05/09 06:36:51;;;;;;;12.33;9.60;;;12.70;1.00;;;;;;5037443;28;20435;-81
2022/05/09 06:39:21;;;;;;;11.53;8.30;;;12.80;1.00;;;;;;5030769;28;20639;-79
2022/05/09 06:41:52;;;;;;;10.87;8.50;;;12.80;1.00;;;;;;5031011;28;20612;-80
2022/05/09 06:44:21;;;;;;;11.27;8.17;;;12.80;1.00;;;;;;5023773;28;20429;-77
2022/05/09 06:46:48;;;;;;;14.20;8.07;;;12.90;1.00;;;;;;5031759;28;20477;-82
2022/05/09 06:49:23;;;;;;;12.13;8.80;;;12.90;1.00;;;;;;5015264;28;20492;-81
2022/05/09 06:51:51;;;;;;;10.57;7.97;;;13.00;1.00;;;;;;5032187;28;20453;-80
2022/05/09 06:54:22;;;;;;;9.87;8.57;;;13.10;1.00;;;;;;5028032;28;20446;-80
2022/05/09 06:56:52;;;;;;;10.77;8.73;;;13.30;1.00;;;;;;5041255;28;20538;-79
2022/05/09 06:59:21;;;;;;;14.83;9.63;;;13.50;1.00;;;;;;5031993;28;20457;-82
2022/05/09 07:01:51;;;;;;;13.30;9.90;;;13.60;1.00;;;;;;5055183;28;20431;-76
2022/05/09 07:04:21;;;;;;;14.10;8.90;;;13.70;1.00;;;;;;5033044;28;20484;-78
2022/05/09 07:06:52;;;;;;;11.63;8.17;;;13.90;1.00;;;;;;5032723;28;20468;-77
2022/05/09 07:09:31;;;;;;;12.50;9.80;;;14.00;1.00;;;;;;5041527;28;20427;-83
2022/05/09 07:12:01;;;;;;;11.10;10.00;;;14.10;1.00;;;;;;5036765;28;20417;-83
2022/05/09 07:14:33;;;;;;;14.23;9.20;;;14.20;1.00;;;;;;5032316;28;20490;-80
2022/05/09 07:17:02;;;;;;;11.10;7.20;;;14.30;1.00;;;;;;5039187;28;20418;-82
2022/05/09 07:19:33;;;;;;;12.00;9.17;;;14.20;1.00;;;;;;5038061;28;20634;-77
2022/05/09 07:22:01;;;;;;;9.73;7.93;;;14.30;1.00;;;;;;5043936;28;20477;-80
2022/05/09 07:24:31;;;;;;;12.30;8.63;;;14.40;1.00;;;;;;5039521;28;20457;-79
2022/05/09 07:27:01;;;;;;;12.80;8.47;;;14.60;1.00;;;;;;5037766;28;20542;-86
2022/05/09 07:29:31;;;;;;;11.03;7.43;;;14.80;1.00;;;;;;5035988;28;20424;-78
2022/05/09 07:32:03;;;;;;;11.93;7.67;;;14.90;1.00;;;;;;5035893;28;20449;-77
2022/05/09 07:34:33;;;;;;;11.50;7.90;;;15.00;1.00;;;;;;5036768;28;20601;-79
2022/05/09 07:37:03;;;;;;;24.97;21.37;;;15.10;1.00;;;;;;5040284;28;20421;-78
2022/05/09 07:39:31;;;;;;;8.70;7.80;;;15.10;1.00;;;;;;5037703;28;20437;-78
2022/05/09 07:42:03;;;;;;;9.80;7.63;;;15.20;1.00;;;;;;5028571;28;20443;-76
2022/05/09 07:44:41;;;;;;;11.63;8.23;;;15.20;1.00;;;;;;5037800;28;20463;-80
2022/05/09 07:47:34;;;;;;;8.30;7.47;;;15.40;1.00;;;;;;5036565;28;20450;-80
2022/05/09 07:50:35;;;;;;;9.73;7.10;;;15.60;1.00;;;;;;5042688;28;20644;-78
2022/05/09 07:53:32;;;;;;;11.93;8.30;;;15.70;1.00;;;;;;5034835;28;20473;-86
2022/05/09 07:56:04;;;;;;;14.13;8.00;;;15.80;1.00;;;;;;5044718;28;20480;-81
2022/05/09 07:58:34;;;;;;;9.87;8.07;;;16.10;1.00;;;;;;5022856;28;20453;-79
2022/05/09 08:01:04;;;;;;;11.40;8.30;;;16.30;1.00;;;;;;5036042;28;20939;-81
2022/05/09 08:03:37;;;;;;;10.97;7.90;;;16.50;1.00;;;;;;5034939;28;20493;-80
2022/05/09 08:06:11;;;;;;;8.20;7.20;;;16.60;1.00;;;;;;5028274;28;20470;-77
2022/05/09 08:08:49;;;;;;;11.37;8.10;;;16.70;1.00;;;;;;5050126;28;20516;-77
2022/05/09 08:11:21;;;;;;;13.07;6.80;;;16.80;1.00;;;;;;5034530;28;20464;-82
2022/05/09 08:13:52;;;;;;;11.40;7.03;;;17.00;1.00;;;;;;5045851;28;20479;-77
2022/05/09 08:16:24;;;;;;;12.07;7.90;;;17.10;1.00;;;;;;5036679;28;20446;-79
2022/05/09 08:18:58;;;;;;;14.50;9.00;;;17.20;1.00;;;;;;5034499;28;20432;-79
2022/05/09 08:21:33;;;;;;;11.23;8.23;;;17.40;1.00;;;;;;5029410;28;20429;-82
2022/05/09 08:24:03;;;;;;;11.93;7.80;;;17.40;1.00;;;;;;5032953;28;20481;-81
2022/05/09 08:26:31;;;;;;;10.83;7.00;;;17.30;1.00;;;;;;5018868;28;20449;-77
2022/05/09 08:29:02;;;;;;;10.17;7.20;;;17.40;1.00;;;;;;5034102;28;20528;-77
2022/05/09 08:31:32;;;;;;;12.53;8.23;;;17.60;1.00;;;;;;5036925;28;20500;-80
2022/05/09 08:34:01;;;;;;;20.70;8.20;;;17.60;1.00;;;;;;5033005;28;20511;-81
2022/05/09 08:36:53;;;;;;;11.40;7.37;;;17.70;1.00;;;;;;5026751;28;20409;-79
2022/05/09 08:39:26;;;;;;;9.60;6.47;;;17.90;1.00;;;;;;5042245;28;20449;-80
2022/05/09 08:42:03;;;;;;;10.13;6.60;;;18.10;1.00;;;;;;5032863;28;20429;-82
2022/05/09 08:45:21;;;;;;;11.27;6.70;;;18.10;1.00;;;;;;5032510;28;20511;-78
2022/05/09 08:48:22;;;;;;;11.40;6.90;;;18.40;1.00;;;;;;5032214;28;20493;-78
2022/05/09 08:51:13;;;;;;;10.90;7.53;;;18.60;1.00;;;;;;5029845;28;20529;-79
2022/05/09 08:53:45;;;;;;;10.27;5.80;;;18.80;1.00;;;;;;5031756;28;20425;-80
2022/05/09 08:56:21;;;;;;;10.70;6.00;;;19.00;1.00;;;;;;5033577;28;21207;-81
2022/05/09 08:59:00;;;;;;;11.60;5.90;;;19.00;1.00;;;;;;5034083;28;20614;-79
2022/05/09 09:01:44;;;;;;;11.87;6.30;;;19.10;1.00;;;;;;5031820;28;20449;-83
2022/05/09 09:04:22;;;;;;;11.97;6.37;;;19.10;1.00;;;;;;5032814;28;20437;-82
2022/05/09 09:07:12;;;;;;;15.70;10.03;;;19.20;1.00;;;;;;5033030;28;20436;-79
2022/05/09 09:10:02;;;;;;;11.33;8.23;;;19.30;1.00;;;;;;5035041;28;20429;-83
2022/05/09 09:12:48;;;;;;;10.83;6.20;;;19.50;1.00;;;;;;5033016;28;20426;-79
2022/05/09 09:15:40;;;;;;;11.37;5.80;;;19.50;1.00;;;;;;5032600;28;20492;-83
2022/05/09 09:18:42;;;;;;;9.00;4.83;;;19.60;1.00;;;;;;5038998;28;20448;-80
2022/05/09 09:21:21;;;;;;;8.40;4.83;;;19.90;1.00;;;;;;5036128;28;20423;-76
2022/05/09 09:24:31;;;;;;;14.60;6.27;;;20.30;1.00;;;;;;5040284;28;20425;-78
2022/05/09 09:27:10;;;;;;;12.43;5.83;;;20.90;1.00;;;;;;5036906;28;20440;-81
2022/05/09 09:29:51;;;;;;;12.27;5.10;;;22.40;1.00;;;;;;5040708;28;20433;-83
2022/05/09 09:32:23;;;;;;;14.47;5.70;;;24.00;1.00;;;;;;5033430;28;20509;-76
2022/05/09 09:35:11;;;;;;;11.93;5.03;;;25.40;1.00;;;;;;5036686;28;20429;-83
2022/05/09 09:37:51;;;;;;;10.57;4.80;;;26.20;1.00;;;;;;5036332;28;20489;-76
2022/05/09 09:40:22;;;;;;;11.50;5.40;;;26.70;1.00;;;;;;5036260;28;20433;-77
2022/05/09 09:42:53;;;;;;;11.50;4.10;;;27.30;1.00;;;;;;5035402;28;20441;-83
2022/05/09 09:45:44;;;;;;;8.63;4.00;;;28.10;1.00;;;;;;5034764;28;20961;-84
2022/05/09 09:48:18;;;;;;;12.87;4.60;;;28.60;1.00;;;;;;5033331;28;20433;-81
2022/05/09 09:51:03;;;;;;;11.90;4.47;;;28.90;1.00;;;;;;5035811;28;20441;-80
2022/05/09 09:53:38;;;;;;;12.10;3.97;;;28.80;1.00;;;;;;5037659;28;20469;-81
2022/05/09 09:56:32;;;;;;;9.50;4.03;;;29.20;1.00;;;;;;5033671;28;20471;-78
2022/05/09 09:59:32;;;;;;;7.77;4.10;;;29.80;1.00;;;;;;5037715;28;20459;-81
2022/05/09 10:02:16;;;;;;;8.97;3.30;;;30.80;1.00;;;;;;5033449;28;20470;-81
2022/05/09 10:04:45;;;;;;;11.60;3.37;;;30.50;1.00;;;;;;5042441;28;20465;-79
2022/05/09 10:07:16;;;;;;;13.30;4.33;;;30.50;1.00;;;;;;5037192;28;20442;-81
2022/05/09 10:10:11;;;;;;;12.37;3.93;;;30.40;1.00;;;;;;5042109;28;20460;-84
2022/05/09 10:12:52;;;;;;;15.17;4.60;;;30.20;1.00;;;;;;5032611;28;20473;-78
2022/05/09 10:15:34;;;;;;;9.50;3.57;;;30.30;1.00;;;;;;5031758;28;20429;-79
2022/05/09 10:18:22;;;;;;;8.03;3.43;;;30.90;1.00;;;;;;5038283;28;20517;-80
2022/05/09 10:20:52;;;;;;;14.33;6.53;;;31.50;1.00;;;;;;5031592;28;20484;-80
2022/05/09 10:26:23;;;;;;;8.70;3.30;;;32.40;1.00;;;;;;5033891;28;20414;-78
2022/05/09 10:28:54;;;;;;;17.00;5.80;;;33.00;1.00;;;;;;5034336;28;20429;-81
2022/05/09 10:31:32;;;;;;;14.30;5.23;;;32.50;1.00;;;;;;5034549;28;20425;-80
2022/05/09 10:34:12;;;;;;;11.60;3.83;;;32.00;1.00;;;;;;5033584;28;20453;-80
2022/05/09 10:36:52;;;;;;;9.67;3.63;;;31.70;1.00;;;;;;5030741;28;20444;-80
2022/05/09 10:39:31;;;;;;;13.07;3.77;;;31.50;1.00;;;;;;5029111;28;20521;-82
2022/05/09 10:42:04;;;;;;;12.33;6.40;;;31.40;1.00;;;;;;5032134;28;20432;-81
2022/05/09 10:44:42;;;;;;;10.87;4.43;;;31.80;1.00;;;;;;5032526;28;20449;-80
2022/05/09 10:47:27;;;;;;;9.80;3.80;;;31.30;1.00;;;;;;5029770;28;20492;-79
2022/05/09 10:50:14;;;;;;;11.20;4.40;;;31.50;1.00;;;;;;5031240;28;20591;-82
2022/05/09 10:52:55;;;;;;;11.93;4.63;;;31.90;1.00;;;;;;5034620;28;20474;-80
2022/05/09 10:55:33;;;;;;;11.50;6.43;;;32.20;1.00;;;;;;5037740;28;20851;-80
2022/05/09 10:58:05;;;;;;;12.13;5.60;;;32.90;1.00;;;;;;5036708;28;20439;-81
2022/05/09 11:00:35;;;;;;;11.10;4.77;;;33.40;1.00;;;;;;5035043;28;21628;-80
2022/05/09 11:03:21;;;;;;;10.47;4.30;;;33.80;1.00;;;;;;5038277;28;20536;-77
2022/05/09 11:06:21;;;;;;;10.00;3.70;;;33.70;1.00;;;;;;5033482;28;20511;-80
2022/05/09 11:09:21;;;;;;;9.57;3.67;;;32.80;1.00;;;;;;5030046;28;20489;-81
2022/05/09 11:12:12;;;;;;;11.03;4.10;;;33.00;1.00;;;;;;5029506;28;20635;-77
2022/05/09 11:14:54;;;;;;;8.97;4.03;;;33.30;1.00;;;;;;5034134;28;20484;-77
2022/05/09 11:17:44;;;;;;;9.87;3.67;;;33.40;1.00;;;;;;5033193;28;20570;-80
2022/05/09 11:20:22;;;;;;;8.20;3.60;;;33.40;1.00;;;;;;5032963;28;20417;-80
2022/05/09 11:23:12;;;;;;;10.43;3.70;;;33.50;1.00;;;;;;5035938;28;20501;-80
2022/05/09 11:26:01;;;;;;;7.90;3.00;;;33.70;1.00;;;;;;5031976;28;20525;-83
2022/05/09 11:28:52;;;;;;;7.50;3.13;;;33.50;1.00;;;;;;5035079;28;20466;-79
2022/05/09 11:31:32;;;;;;;9.00;3.30;;;33.50;1.00;;;;;;5037831;28;21097;-80
2022/05/09 11:34:20;;;;;;;12.33;4.60;;;33.70;1.00;;;;;;5034012;28;20472;-83
2022/05/09 11:37:12;;;;;;;10.40;3.70;;;33.30;1.00;;;;;;5033444;28;20436;-80
2022/05/09 11:40:02;;;;;;;8.93;3.70;;;34.00;1.00;;;;;;5036122;28;20476;-80
2022/05/09 11:45:51;;;;;;;10.93;3.70;;;35.10;1.00;;;;;;5028609;28;20476;-82
2022/05/09 11:48:32;;;;;;;10.60;3.77;;;35.10;1.00;;;;;;5039715;28;20332;-83
2022/05/09 11:51:12;;;;;;;8.83;3.57;;;35.40;1.00;;;;;;5034216;28;20438;-81
2022/05/09 11:53:51;;;;;;;8.67;3.27;;;35.70;1.00;;;;;;5035522;28;20441;-80
2022/05/09 11:56:23;;;;;;;8.27;3.90;;;35.90;1.00;;;;;;5032861;28;20492;-79
2022/05/09 11:58:53;;;;;;;8.00;3.37;;;36.30;1.00;;;;;;5035556;28;21282;-80
2022/05/09 12:01:53;;;;;;;12.30;3.00;;;37.10;1.00;;;;;;5037143;28;20483;-80
2022/05/09 12:04:36;;;;;;;7.90;2.93;;;37.30;1.00;;;;;;5034256;28;20520;-78
2022/05/09 12:07:41;;;;;;;8.23;3.13;;;37.40;1.00;;;;;;5036428;28;20461;-79
2022/05/09 12:10:27;;;;;;;11.50;3.90;;;38.00;1.00;;;;;;5036367;28;20428;-79
2022/05/09 12:13:04;;;;;;;10.50;4.23;;;38.40;1.00;;;;;;5038269;28;20497;-79
2022/05/09 12:15:53;;;;;;;7.87;2.97;;;38.60;1.00;;;;;;5031187;28;20433;-79
2022/05/09 12:18:33;;;;;;;9.43;3.30;;;38.50;1.00;;;;;;5028113;28;20445;-80
2022/05/09 12:21:14;;;;;;;10.17;3.80;;;38.40;1.00;;;;;;5036373;28;20483;-79
2022/05/09 12:24:14;;;;;;;11.20;4.23;;;38.20;1.00;;;;;;5036553;28;20479;-78
2022/05/09 12:26:45;;;;;;;8.83;3.63;;;38.50;1.00;;;;;;5031266;28;20564;-79
2022/05/09 12:29:58;;;;;;;10.27;3.83;;;37.70;1.00;;;;;;5036378;28;20489;-80
2022/05/09 12:32:52;;;;;;;7.93;2.90;;;38.00;1.00;;;;;;5034258;28;20492;-77
2022/05/09 12:35:22;;;;;;;10.60;4.03;;;37.30;1.00;;;;;;5036903;28;20461;-77
2022/05/09 12:37:52;;;;;;;9.10;3.50;;;37.40;1.00;;;;;;5032361;28;20441;-76
2022/05/09 12:40:25;;;;;;;7.80;2.93;;;37.20;1.00;;;;;;5034038;28;20449;-79
2022/05/09 12:43:02;;;;;;;9.80;4.67;;;37.60;1.00;;;;;;5034985;28;20479;-79
2022/05/09 12:45:33;;;;;;;7.73;3.17;;;38.10;1.00;;;;;;5033764;28;20428;-82
2022/05/09 12:48:04;;;;;;;7.87;3.43;;;38.40;1.00;;;;;;5032825;28;20425;-79
2022/05/09 12:50:39;;;;;;;9.60;4.10;;;37.70;1.00;;;;;;5035472;28;20493;-81
2022/05/09 12:53:14;;;;;;;9.57;3.90;;;37.60;1.00;;;;;;5031962;28;20445;-81
2022/05/09 12:55:56;;;;;;;9.10;3.60;;;37.60;1.00;;;;;;5037540;28;20540;-80
2022/05/09 12:58:35;;;;;;;8.63;4.10;;;37.90;1.00;;;;;;5028336;28;20437;-81
2022/05/09 13:01:13;;;;;;;9.63;4.20;;;38.00;1.00;;;;;;5033764;28;20501;-80
2022/05/09 13:03:53;;;;;;;8.03;3.67;;;38.20;1.00;;;;;;5035658;28;20405;-80
2022/05/09 13:06:24;;;;;;;8.40;3.20;;;37.90;1.00;;;;;;5032568;28;20543;-78
2022/05/09 13:08:53;;;;;;;9.23;3.43;;;37.20;1.00;;;;;;5034795;28;20405;-79
2022/05/09 13:11:26;;;;;;;8.83;3.77;;;36.60;1.00;;;;;;5035079;28;20461;-81
2022/05/09 13:14:08;;;;;;;10.37;4.40;;;36.30;1.00;;;;;;5035775;28;20449;-83
2022/05/09 13:16:42;;;;;;;9.30;3.73;;;36.20;1.00;;;;;;5027073;28;20511;-82
2022/05/09 13:19:21;;;;;;;8.33;3.67;;;36.30;1.00;;;;;;5034812;28;20422;-82
2022/05/09 13:21:52;;;;;;;9.50;3.90;;;36.40;1.00;;;;;;5030735;28;21202;-80
2022/05/09 13:24:32;;;;;;;9.70;4.10;;;36.80;1.00;;;;;;5031603;28;20535;-80
2022/05/09 13:27:10;;;;;;;8.93;4.10;;;37.00;1.00;;;;;;5035614;28;20484;-82
2022/05/09 13:29:51;;;;;;;10.63;3.60;;;37.20;1.00;;;;;;5032738;28;20477;-83
2022/05/09 13:32:34;;;;;;;8.10;3.70;;;37.40;1.00;;;;;;5030232;28;20555;-79
2022/05/09 13:35:15;;;;;;;7.90;3.27;;;37.30;1.00;;;;;;5035198;28;20456;-78
2022/05/09 13:37:43;;;;;;;9.80;4.03;;;36.00;1.00;;;;;;5031811;28;20500;-81
2022/05/09 13:40:14;;;;;;;10.17;4.53;;;35.90;1.00;;;;;;5031455;28;20421;-78
2022/05/09 13:42:45;;;;;;;9.65;3.90;;;36.00;1.00;;;;;;5032156;28;20412;-83
2022/05/09 13:45:22;;;;;;;10.20;4.47;;;36.80;1.00;;;;;;5037264;28;20415;-83
2022/05/09 13:48:02;;;;;;;10.30;4.13;;;37.30;1.00;;;;;;5037852;28;20580;-85